Bend, OR

3:12 AM PDT on September 16, 2014 (GMT -0700)
Awbrey Butte (HorizonDr) | Change Station
CLOSE
Current Station
Personal Weather Station
Location: Bend, OR
Elevation: 3821 ft
Nearby Weather Stations

Elev 3821 ft 44.08 °N, 121.35 °W | Updated 16 seconds ago

Clear
Clear
61.2 °F
Feels Like 61.2 °F
N
2.0
Wind Variable Wind from North
Gusts 4.0 mph

Today
High -- | Low -- °F
--% Chance of Precip.
Yesterday
High -- | Low -- °F
Precip. -- in
6:45 AM 7:13 PM
Waning Gibbous, 47% visible
Pressure 29.97 in
Visibility 10.0 miles
Clouds Clear
Dew Point 35 °F
Humidity 37%
Rainfall 0.00 in
Snow Depth 1 in , 0 in , 0 in
UV 0 out of 12
Pollen 2.30 out of 12
Air Quality Not available.
Flu Activity Not available.
METAR KBDN 160955Z AUTO 20004KT 10SM CLR 12/00 A2997 RMK AO2

More Conditions Fewer Conditions

Pressure 29.97 in
Visibility 10.0 miles
Clouds Clear
Dew Point 35 °F
Humidity 37%
Rainfall 0.00 in
Snow Depth 1 in , 0 in , 0 in
UV 0 out of 12
Pollen 2.30 out of 12
Air Quality Not available.
Flu Activity Not available.
METAR KBDN 160955Z AUTO 20004KT 10SM CLR 12/00 A2997 RMK AO2

More Conditions Fewer Conditions

10-Day Weather Forecast

Almanac

Astronomy

Sep. 16, 2014 Rise Set
Actual Time 6:45 AM PDT 7:13 PM PDT
Civil Twilight 6:16 AM PDT 7:42 PM PDT
Nautical Twilight 5:42 AM PDT 8:16 PM PDT
Astronomical Twilight 5:07 AM PDT 8:52 PM PDT
Moon No Moon Rise 2:50 PM PDT
Length of Visible Light 13h 25m
Length of Day
12h 27m
Tomorrow will be 3m 1s shorter.
Waning Gibbous, 47% of the Moon is Illuminated
Today
Waning Gibbous
Sep 24
New
Oct 1
First Quarter
Oct 8
Full
Oct 15
Last Quarter

Today's Extremes

State Highs State Lows

Community

WunderPhotos

Upload Photos

1,753,717 photos uploaded!

WunderBlogs® & News

Nearby

Snow Depth

Station Depth Elevation
Holland Meadows 0 in 4900 ft
Tipton 0 in 5150 ft
Silver Creek 0 in 5720 ft
Bourne 0 in 5800 ft
Fish Creek 0 in 7900 ft

Earthquake Activity

City Distance Mag. Time & Date
No recent earthquake activity has been reported nearby.
Minimum magnitude displayed is 2.5.

Coastal Water Temperatures

Place Temperature
No Stations Reporting

Nearby Weather Stations